Time;durP1;ratioP1;P1;durP2;ratioP2;P2;SDS_P1;SDS_P2;PMS_P1;PMS_P2;Temp;Humidity;BMP_temperature;BMP_pressure;BME280_temperature;BME280_humidity;BME280_pressure;Samples;Min_cycle;Max_cycle;Signal;HPM_P1;HPM_P2
2022/10/09 00:02:17;;;;;;;4.60;2.00;;;;;;;8.43;100.00;100137.61;100681;1333;25055;-32
2022/10/09 00:04:42;;;;;;;2.10;1.50;;;;;;;8.41;100.00;100142.89;100667;1341;23226;-34
2022/10/09 00:07:08;;;;;;;11.10;2.20;;;;;;;8.38;100.00;100142.85;100615;1340;22715;-32
2022/10/09 00:09:33;;;;;;;2.20;2.00;;;;;;;8.27;100.00;100142.77;100641;1339;24383;-33
2022/10/09 00:11:59;;;;;;;3.60;2.40;;;;;;;8.26;100.00;100147.19;100680;1341;22765;-38
2022/10/09 00:14:24;;;;;;;9.50;3.00;;;;;;;8.25;100.00;100147.21;100591;1339;24568;-33
2022/10/09 00:16:50;;;;;;;23.50;2.40;;;;;;;8.17;100.00;100150.23;100635;1339;22740;-36
2022/10/09 00:19:16;;;;;;;1.20;0.80;;;;;;;8.13;100.00;100152.30;100825;1326;22499;-36
2022/10/09 00:21:41;;;;;;;8.50;2.40;;;;;;;8.15;100.00;100159.55;100812;1330;23113;-33
2022/10/09 00:24:07;;;;;;;2.30;1.60;;;;;;;8.10;100.00;100166.30;100822;1338;22862;-36
2022/10/09 00:26:33;;;;;;;3.20;1.60;;;;;;;8.09;100.00;100166.56;100756;1338;22734;-36
2022/10/09 00:28:59;;;;;;;2.30;1.40;;;;;;;8.05;100.00;100166.50;100735;1338;22505;-36
2022/10/09 00:31:25;;;;;;;2.50;1.30;;;;;;;7.99;100.00;100166.65;100733;1333;23116;-39
2022/10/09 00:33:50;;;;;;;3.60;0.70;;;;;;;7.94;100.00;100172.48;100785;1336;22804;-32
2022/10/09 00:36:18;;;;;;;2.00;1.10;;;;;;;7.92;100.00;100173.48;100765;1338;23090;-33
2022/10/09 00:38:44;;;;;;;3.40;1.40;;;;;;;7.88;100.00;100179.25;100819;1338;22984;-32
2022/10/09 00:41:13;;;;;;;12.20;2.10;;;;;;;7.85;100.00;100182.50;100736;1326;23114;-35
2022/10/09 00:43:44;;;;;;;6.50;1.80;;;;;;;7.82;100.00;100183.89;100717;1338;24370;-32
2022/10/09 00:46:15;;;;;;;7.40;1.60;;;;;;;7.82;100.00;100184.56;100823;1330;22885;-35
2022/10/09 00:48:41;;;;;;;8.90;2.50;;;;;;;7.76;100.00;100186.30;100796;1331;24370;-32
2022/10/09 00:51:07;;;;;;;5.00;1.60;;;;;;;7.71;100.00;100191.36;100679;1338;24489;-36
2022/10/09 00:53:32;;;;;;;1.90;1.70;;;;;;;7.68;100.00;100193.31;100685;1332;22875;-36
2022/10/09 00:55:58;;;;;;;6.40;1.90;;;;;;;7.60;100.00;100194.90;100832;1338;22875;-36
2022/10/09 00:58:23;;;;;;;5.40;2.10;;;;;;;7.50;100.00;100205.03;100910;1335;22758;-33
2022/10/09 01:00:49;;;;;;;5.70;1.60;;;;;;;7.39;100.00;100205.56;100854;1330;22739;-31
2022/10/09 01:03:14;;;;;;;4.20;2.10;;;;;;;7.29;100.00;100207.15;100770;1330;24483;-31
2022/10/09 01:05:48;;;;;;;8.60;2.70;;;;;;;7.23;100.00;100209.84;100721;1338;23004;-34
2022/10/09 01:08:19;;;;;;;1.50;0.90;;;;;;;7.16;100.00;100214.19;100723;1330;25299;-32
2022/10/09 01:10:48;;;;;;;4.90;2.30;;;;;;;7.12;100.00;100219.84;100858;1338;22770;-35
2022/10/09 01:13:18;;;;;;;5.10;1.80;;;;;;;7.07;100.00;100216.48;100785;1337;23521;-32
2022/10/09 01:15:48;;;;;;;5.30;1.70;;;;;;;7.08;100.00;100225.48;100749;1330;24511;-36
2022/10/09 01:18:21;;;;;;;4.00;1.90;;;;;;;7.08;100.00;100223.67;100807;1330;24495;-35
2022/10/09 01:20:52;;;;;;;0.70;0.70;;;;;;;7.07;100.00;100229.52;100802;1338;22503;-35
2022/10/09 01:23:27;;;;;;;9.50;2.00;;;;;;;7.05;100.00;100235.97;100790;1333;24362;-39
2022/10/09 01:25:59;;;;;;;2.10;1.70;;;;;;;6.98;100.00;100240.67;100846;1338;22513;-36
2022/10/09 01:28:27;;;;;;;6.50;2.60;;;;;;;6.97;100.00;100248.95;100774;1338;25457;-36
2022/10/09 01:30:56;;;;;;;4.80;2.60;;;;;;;6.95;100.00;100251.87;100805;1339;24380;-33
2022/10/09 01:33:22;;;;;;;9.30;2.50;;;;;;;6.92;100.00;100259.29;100783;1338;24380;-32
2022/10/09 01:35:47;;;;;;;16.80;1.90;;;;;;;6.88;100.00;100265.75;100826;1338;24162;-33
2022/10/09 01:38:13;;;;;;;5.60;1.80;;;;;;;6.85;100.00;100275.80;100657;1329;23115;-33
2022/10/09 01:40:39;;;;;;;8.60;2.50;;;;;;;6.84;100.00;100283.73;100838;1339;22899;-32
2022/10/09 01:43:05;;;;;;;6.50;1.30;;;;;;;6.83;100.00;100285.97;100735;1325;24384;-34
2022/10/09 01:45:36;;;;;;;1.90;1.30;;;;;;;6.85;100.00;100292.40;100800;1338;22877;-35
2022/10/09 01:48:01;;;;;;;4.90;2.20;;;;;;;6.88;100.00;100298.50;100761;1338;24463;-35
2022/10/09 01:50:29;;;;;;;4.80;1.50;;;;;;;6.88;100.00;100306.61;100852;1338;24461;-37
2022/10/09 01:52:59;;;;;;;11.50;3.50;;;;;;;6.89;100.00;100305.02;100737;1338;25633;-37
2022/10/09 01:55:26;;;;;;;6.00;2.20;;;;;;;6.81;100.00;100307.50;100711;1338;22761;-32
2022/10/09 01:57:59;;;;;;;6.30;2.70;;;;;;;6.76;100.00;100312.45;100684;1333;22745;-35
2022/10/09 02:00:24;;;;;;;2.70;1.70;;;;;;;6.68;100.00;100317.99;100816;1336;22553;-32
2022/10/09 02:02:50;;;;;;;5.30;1.90;;;;;;;6.62;100.00;100322.59;100792;1338;23218;-32
2022/10/09 02:05:20;;;;;;;3.20;2.20;;;;;;;6.55;100.00;100332.61;100674;1330;23114;-35
2022/10/09 02:07:46;;;;;;;14.70;2.80;;;;;;;6.54;100.00;100343.45;100773;1338;24495;-32
2022/10/09 02:10:12;;;;;;;3.30;2.00;;;;;;;6.52;100.00;100346.43;100804;1337;22747;-36
2022/10/09 02:12:39;;;;;;;4.60;1.70;;;;;;;6.49;100.00;100352.09;100782;1333;23075;-32
2022/10/09 02:15:05;;;;;;;6.20;2.00;;;;;;;6.53;100.00;100354.38;100757;1330;23140;-32
2022/10/09 02:17:32;;;;;;;8.20;1.90;;;;;;;6.48;100.00;100352.55;100796;1338;23090;-32
2022/10/09 02:20:01;;;;;;;8.30;2.00;;;;;;;6.45;100.00;100359.02;100745;1338;23107;-32
2022/10/09 02:22:28;;;;;;;2.80;1.10;;;;;;;6.39;100.00;100359.79;100743;1338;25264;-32
2022/10/09 02:24:54;;;;;;;2.90;1.60;;;;;;;6.47;100.00;100364.91;100689;1330;22760;-36
2022/10/09 02:27:20;;;;;;;3.70;1.60;;;;;;;6.46;100.00;100364.27;100795;1330;23218;-32
2022/10/09 02:29:46;;;;;;;6.50;1.90;;;;;;;6.41;100.00;100364.56;100750;1333;23112;-32
2022/10/09 02:32:11;;;;;;;6.50;2.70;;;;;;;6.38;100.00;100370.89;100821;1338;22755;-35
2022/10/09 02:34:37;;;;;;;1.40;0.60;;;;;;;6.40;100.00;100369.48;100789;1330;22760;-33
2022/10/09 02:37:02;;;;;;;3.10;2.00;;;;;;;6.37;100.00;100371.88;100795;1338;22627;-34
2022/10/09 02:39:28;;;;;;;2.30;1.50;;;;;;;6.34;100.00;100373.07;100760;1338;23104;-32
2022/10/09 02:41:53;;;;;;;3.20;1.40;;;;;;;6.38;100.00;100375.91;100724;1338;22734;-31
2022/10/09 02:44:19;;;;;;;4.70;2.30;;;;;;;6.36;100.00;100376.13;100783;1330;23103;-32
2022/10/09 02:46:44;;;;;;;0.60;0.30;;;;;;;6.34;100.00;100379.53;100797;1338;22986;-36
2022/10/09 02:49:10;;;;;;;3.00;1.90;;;;;;;6.39;100.00;100382.02;100833;1325;23017;-36
2022/10/09 02:51:35;;;;;;;3.70;1.70;;;;;;;6.36;100.00;100385.51;100747;1338;25039;-36
2022/10/09 02:54:01;;;;;;;2.00;1.40;;;;;;;6.34;100.00;100386.91;100740;1338;23089;-33
2022/10/09 02:56:27;;;;;;;1.20;0.70;;;;;;;6.25;100.00;100388.50;100800;1337;23229;-34
2022/10/09 02:58:53;;;;;;;3.50;2.00;;;;;;;6.26;100.00;100389.88;100786;1333;22770;-33
2022/10/09 03:01:19;;;;;;;3.80;2.70;;;;;;;6.22;100.00;100390.39;100726;1338;23105;-36
2022/10/09 03:03:44;;;;;;;3.60;2.80;;;;;;;6.16;100.00;100389.68;100739;1339;22499;-31
2022/10/09 03:06:12;;;;;;;6.10;1.30;;;;;;;6.16;100.00;100395.02;100799;1323;23013;-34
2022/10/09 03:08:39;;;;;;;2.60;1.20;;;;;;;6.23;100.00;100398.89;100728;1331;23070;-31
2022/10/09 03:11:05;;;;;;;12.60;2.20;;;;;;;6.25;100.00;100403.65;100779;1335;23065;-34
2022/10/09 03:13:31;;;;;;;6.90;3.10;;;;;;;6.24;100.00;100406.58;100716;1330;24362;-32
2022/10/09 03:16:01;;;;;;;6.30;2.30;;;;;;;6.22;100.00;100404.42;100709;1333;25931;-31
2022/10/09 03:18:27;;;;;;;6.30;1.90;;;;;;;6.23;100.00;100406.89;100779;1333;24377;-35
2022/10/09 03:20:53;;;;;;;5.60;2.00;;;;;;;6.22;100.00;100407.50;100739;1325;22520;-35
2022/10/09 03:23:18;;;;;;;6.10;1.30;;;;;;;6.19;100.00;100412.94;100376;1330;645126;-31
2022/10/09 03:25:44;;;;;;;4.20;1.30;;;;;;;6.16;100.00;100411.45;100716;1338;24590;-36
2022/10/09 03:28:09;;;;;;;2.70;1.60;;;;;;;6.11;100.00;100419.71;100841;1333;23158;-32
2022/10/09 03:30:39;;;;;;;5.50;2.20;;;;;;;6.07;100.00;100426.17;100815;1328;24486;-32
2022/10/09 03:33:05;;;;;;;3.10;1.90;;;;;;;6.06;100.00;100430.61;100865;1338;24453;-36
2022/10/09 03:35:30;;;;;;;3.30;1.50;;;;;;;6.00;100.00;100433.54;100724;1338;23332;-35
2022/10/09 03:37:56;;;;;;;26.10;9.00;;;;;;;5.97;100.00;100433.56;100747;1338;23105;-32
2022/10/09 03:40:21;;;;;;;17.70;9.60;;;;;;;5.92;100.00;100431.62;100722;1329;22771;-33
2022/10/09 03:42:47;;;;;;;25.50;17.70;;;;;;;5.86;100.00;100437.07;100740;1338;24380;-35
2022/10/09 03:45:13;;;;;;;28.60;18.90;;;;;;;5.85;100.00;100439.16;100760;1338;24373;-35
2022/10/09 03:47:38;;;;;;;17.60;12.20;;;;;;;5.81;100.00;100438.05;100749;1337;23240;-32
2022/10/09 03:50:04;;;;;;;21.50;17.20;;;;;;;5.83;100.00;100441.28;100788;1332;24382;-35
2022/10/09 03:52:31;;;;;;;10.60;3.80;;;;;;;5.83;100.00;100442.34;100872;1331;23125;-34
2022/10/09 03:54:56;;;;;;;11.60;3.90;;;;;;;5.83;100.00;100442.52;100833;1337;24495;-33
2022/10/09 03:57:22;;;;;;;5.40;2.90;;;;;;;5.76;100.00;100444.93;100825;1338;23089;-35
2022/10/09 03:59:47;;;;;;;5.90;2.70;;;;;;;5.73;100.00;100443.84;100813;1338;25250;-33
2022/10/09 04:02:13;;;;;;;8.20;2.10;;;;;;;5.69;100.00;100444.36;100738;1331;22725;-33
2022/10/09 04:04:38;;;;;;;7.10;2.40;;;;;;;5.65;100.00;100450.59;100753;1332;23239;-36
2022/10/09 04:07:04;;;;;;;6.70;3.80;;;;;;;5.62;100.00;100457.38;100811;1338;22876;-36
2022/10/09 04:09:29;;;;;;;14.20;5.20;;;;;;;5.59;100.00;100464.20;100749;1335;26550;-33
2022/10/09 04:11:55;;;;;;;12.60;3.80;;;;;;;5.58;100.00;100472.70;100775;1330;25390;-33
2022/10/09 04:14:20;;;;;;;7.20;3.00;;;;;;;5.57;100.00;100476.14;100880;1338;25356;-33
2022/10/09 04:16:46;;;;;;;10.40;3.50;;;;;;;5.59;100.00;100475.95;100779;1331;24549;-34
2022/10/09 04:19:12;;;;;;;9.50;2.50;;;;;;;5.58;100.00;100480.69;100812;1332;24559;-31
2022/10/09 04:21:37;;;;;;;7.50;3.80;;;;;;;5.58;100.00;100484.36;100742;1334;22760;-35
2022/10/09 04:24:07;;;;;;;8.80;2.60;;;;;;;5.57;100.00;100485.95;100840;1338;24430;-38
2022/10/09 04:26:33;;;;;;;14.90;5.40;;;;;;;5.53;100.00;100486.09;100839;1334;24464;-33
2022/10/09 04:28:59;;;;;;;8.90;4.40;;;;;;;5.49;100.00;100483.80;100783;1338;22748;-36
2022/10/09 04:31:24;;;;;;;3.40;1.80;;;;;;;5.44;100.00;100487.09;100768;1332;24379;-36
2022/10/09 04:33:53;;;;;;;7.00;3.00;;;;;;;5.42;100.00;100490.97;100804;1330;23212;-32
2022/10/09 04:36:18;;;;;;;6.30;2.80;;;;;;;5.41;100.00;100492.70;100824;1328;22760;-33
2022/10/09 04:38:44;;;;;;;5.40;3.70;;;;;;;5.36;100.00;100499.45;100683;1338;23229;-33
2022/10/09 04:41:09;;;;;;;4.20;2.10;;;;;;;5.33;100.00;100500.15;100733;1338;22733;-35
2022/10/09 04:43:35;;;;;;;1.00;0.90;;;;;;;5.33;100.00;100502.31;100760;1329;22749;-36
2022/10/09 04:46:04;;;;;;;5.80;2.90;;;;;;;5.31;100.00;100504.06;100759;1338;22760;-35
2022/10/09 04:48:30;;;;;;;12.80;2.80;;;;;;;5.29;100.00;100505.45;100862;1330;22771;-37
2022/10/09 04:50:56;;;;;;;7.40;3.00;;;;;;;5.25;100.00;100506.90;100867;1338;23094;-33
2022/10/09 04:53:21;;;;;;;8.50;2.70;;;;;;;5.23;100.00;100513.97;100721;1331;24485;-32
2022/10/09 04:55:47;;;;;;;12.80;3.80;;;;;;;5.20;100.00;100515.71;100804;1338;22748;-36
2022/10/09 04:58:13;;;;;;;6.10;2.40;;;;;;;5.19;100.00;100519.35;100924;1338;23105;-33
2022/10/09 05:00:40;;;;;;;11.00;4.20;;;;;;;5.18;100.00;100524.23;100873;1338;24453;-33
2022/10/09 05:03:05;;;;;;;11.00;3.50;;;;;;;5.19;100.00;100531.20;100762;1335;24380;-36
2022/10/09 05:05:31;;;;;;;3.90;2.70;;;;;;;5.15;100.00;100532.05;100797;1333;24379;-36
2022/10/09 05:07:57;;;;;;;8.40;3.00;;;;;;;5.13;100.00;100534.02;100713;1338;22549;-36
2022/10/09 05:10:23;;;;;;;6.20;3.40;;;;;;;5.14;100.00;100539.06;100760;1331;22751;-36
2022/10/09 05:12:48;;;;;;;15.70;10.80;;;;;;;5.14;100.00;100538.34;100805;1331;24872;-37
2022/10/09 05:15:14;;;;;;;29.00;14.40;;;;;;;5.14;100.00;100537.84;100829;1336;22878;-35
2022/10/09 05:17:40;;;;;;;26.40;6.90;;;;;;;5.13;100.00;100541.64;100831;1338;23238;-35
2022/10/09 05:20:06;;;;;;;11.60;3.80;;;;;;;5.11;100.00;100543.63;100696;1331;22554;-34
2022/10/09 05:22:31;;;;;;;8.60;2.80;;;;;;;5.07;100.00;100544.85;100794;1332;24283;-35
2022/10/09 05:24:57;;;;;;;7.30;3.40;;;;;;;5.03;100.00;100549.25;100819;1338;22748;-32
2022/10/09 05:27:22;;;;;;;7.80;2.90;;;;;;;5.01;100.00;100551.05;100781;1338;24590;-32
2022/10/09 05:29:48;;;;;;;3.70;2.40;;;;;;;4.98;100.00;100551.33;100696;1338;24361;-31
2022/10/09 05:32:14;;;;;;;6.70;3.40;;;;;;;4.96;100.00;100557.73;100754;1338;22748;-32
2022/10/09 05:34:39;;;;;;;6.00;2.00;;;;;;;4.96;100.00;100560.54;100772;1333;22715;-35
2022/10/09 05:37:05;;;;;;;4.90;2.20;;;;;;;4.99;100.00;100559.91;100758;1339;24441;-32
2022/10/09 05:39:31;;;;;;;11.10;2.80;;;;;;;5.05;100.00;100559.57;100786;1339;22567;-35
2022/10/09 05:41:57;;;;;;;7.30;2.30;;;;;;;5.05;100.00;100568.13;100840;1338;23115;-38
2022/10/09 05:44:23;;;;;;;6.20;3.90;;;;;;;5.08;100.00;100569.98;100860;1338;24251;-32
2022/10/09 05:46:48;;;;;;;15.00;3.40;;;;;;;5.09;100.00;100571.12;100792;1338;24372;-32
2022/10/09 05:49:14;;;;;;;5.90;2.40;;;;;;;5.14;100.00;100569.27;100745;1330;25643;-35
2022/10/09 05:51:41;;;;;;;6.40;3.00;;;;;;;5.16;100.00;100577.60;100771;1330;24768;-35
2022/10/09 05:54:08;;;;;;;4.70;3.30;;;;;;;5.20;100.00;100576.44;100842;1338;22780;-32
2022/10/09 05:56:35;;;;;;;4.80;2.80;;;;;;;5.31;100.00;100577.70;100742;1331;24494;-33
2022/10/09 05:59:03;;;;;;;3.00;2.50;;;;;;;5.38;100.00;100582.96;100788;1336;23122;-32
2022/10/09 06:01:31;;;;;;;9.00;2.90;;;;;;;5.50;100.00;100583.59;100767;1331;22498;-36
2022/10/09 06:03:58;;;;;;;11.30;2.80;;;;;;;5.56;100.00;100585.64;100836;1338;24491;-34
2022/10/09 06:06:26;;;;;;;6.40;1.50;;;;;;;5.63;100.00;100591.09;100885;1327;25361;-31
2022/10/09 06:08:52;;;;;;;2.40;1.40;;;;;;;5.64;100.00;100587.47;100870;1337;24310;-34
2022/10/09 06:11:20;;;;;;;5.50;1.60;;;;;;;5.67;100.00;100591.32;100834;1338;23229;-31
2022/10/09 06:13:45;;;;;;;4.60;2.20;;;;;;;5.74;100.00;100598.52;100754;1338;22665;-35
2022/10/09 06:16:12;;;;;;;8.10;2.60;;;;;;;5.77;100.00;100601.41;100773;1339;24868;-32
2022/10/09 06:18:40;;;;;;;3.60;2.20;;;;;;;5.85;100.00;100605.47;100804;1332;23102;-36
2022/10/09 06:21:06;;;;;;;12.30;2.90;;;;;;;5.92;100.00;100607.59;100710;1342;22623;-35
2022/10/09 06:23:32;;;;;;;10.50;2.80;;;;;;;5.97;100.00;100610.30;100833;1323;23099;-32
2022/10/09 06:25:59;;;;;;;;;;;;;;;6.05;100.00;100615.84;100805;1340;23207;-34
2022/10/09 06:28:25;;;;;;;2.10;1.10;;;;;;;6.12;100.00;100621.77;100775;1335;24337;-36
2022/10/09 06:30:51;;;;;;;3.00;1.10;;;;;;;6.21;100.00;100623.45;100809;1338;22758;-36
2022/10/09 06:33:16;;;;;;;14.10;2.50;;;;;;;6.28;100.00;100622.40;100777;1336;24877;-33
2022/10/09 06:35:42;;;;;;;9.10;1.30;;;;;;;6.37;100.00;100620.25;100803;1335;22872;-36
2022/10/09 06:38:07;;;;;;;2.90;1.90;;;;;;;6.43;100.00;100625.23;100860;1331;24303;-38
2022/10/09 06:40:35;;;;;;;7.80;2.00;;;;;;;6.51;100.00;100622.65;100851;1334;22745;-32
2022/10/09 06:43:02;;;;;;;15.90;3.00;;;;;;;6.57;100.00;100620.73;100864;1344;24282;-35
2022/10/09 06:45:28;;;;;;;1.80;1.30;;;;;;;6.64;100.00;100619.05;100900;1333;24489;-37
2022/10/09 06:47:53;;;;;;;3.60;2.40;;;;;;;6.75;100.00;100617.41;100843;1343;23343;-34
2022/10/09 06:50:19;;;;;;;8.90;2.60;;;;;;;6.85;100.00;100616.86;100767;1333;22899;-36
2022/10/09 06:52:44;;;;;;;10.00;1.60;;;;;;;7.04;100.00;100619.37;100718;1335;24366;-36
2022/10/09 06:55:10;;;;;;;11.90;1.30;;;;;;;7.14;100.00;100615.61;100772;1339;24309;-33
2022/10/09 06:57:35;;;;;;;16.80;1.20;;;;;;;7.31;100.00;100613.45;100799;1323;24759;-40
2022/10/09 07:00:01;;;;;;;3.40;0.70;;;;;;;7.45;100.00;100605.52;100761;1338;24359;-36
2022/10/09 07:02:27;;;;;;;2.80;1.40;;;;;;;7.65;100.00;100607.38;100807;1339;24461;-37
2022/10/09 07:04:52;;;;;;;2.30;1.40;;;;;;;7.72;100.00;100593.63;100839;1342;23454;-37
2022/10/09 07:07:18;;;;;;;4.20;0.80;;;;;;;7.82;100.00;100580.91;100773;1339;22512;-37
2022/10/09 07:09:44;;;;;;;7.90;1.30;;;;;;;7.99;100.00;100560.90;100815;1339;24369;-35
2022/10/09 07:12:09;;;;;;;2.60;0.90;;;;;;;8.12;100.00;100533.73;100756;1344;23204;-34
2022/10/09 07:14:35;;;;;;;4.80;1.10;;;;;;;8.27;100.00;100526.32;100760;1339;22788;-36
2022/10/09 07:17:01;;;;;;;6.20;2.20;;;;;;;8.46;100.00;100526.98;100765;1343;22840;-36
2022/10/09 07:19:27;;;;;;;3.00;1.20;;;;;;;8.58;100.00;100517.66;100757;1333;24335;-34
2022/10/09 07:21:52;;;;;;;5.90;1.10;;;;;;;8.77;100.00;100509.13;100813;1339;22748;-34
2022/10/09 07:24:19;;;;;;;16.30;0.80;;;;;;;8.92;100.00;100493.34;100736;1330;23227;-34
2022/10/09 07:26:45;;;;;;;3.90;1.10;;;;;;;8.97;100.00;100487.24;100741;1342;23098;-34
2022/10/09 07:29:12;;;;;;;3.90;1.10;;;;;;;9.11;100.00;100476.91;100778;1339;23120;-34
2022/10/09 07:31:38;;;;;;;1.50;0.70;;;;;;;9.18;100.00;100476.89;100865;1343;23102;-36
2022/10/09 07:34:05;;;;;;;2.00;0.80;;;;;;;9.36;100.00;100476.86;100875;1340;24307;-38
2022/10/09 07:36:31;;;;;;;3.50;1.10;;;;;;;9.49;100.00;100473.75;100781;1332;22738;-37
2022/10/09 07:38:57;;;;;;;6.80;0.90;;;;;;;9.55;100.00;100467.73;100783;1339;22748;-34
2022/10/09 07:41:24;;;;;;;3.90;1.10;;;;;;;9.59;100.00;100473.77;100711;1336;23240;-37
2022/10/09 07:43:50;;;;;;;5.10;0.80;;;;;;;9.76;100.00;100476.98;100740;1336;25421;-36
2022/10/09 07:46:17;;;;;;;1.40;0.60;;;;;;;10.10;100.00;100478.79;100780;1339;22866;-37
2022/10/09 07:48:43;;;;;;;6.50;0.70;;;;;;;10.01;100.00;100477.95;100770;1339;22745;-37
2022/10/09 07:51:11;;;;;;;4.20;0.80;;;;;;;10.09;100.00;100480.70;100732;1343;23002;-37
2022/10/09 07:53:37;;;;;;;3.30;0.90;;;;;;;10.34;100.00;100488.38;100881;1331;22749;-37
2022/10/09 07:56:04;;;;;;;4.40;0.90;;;;;;;10.55;100.00;100483.81;100782;1338;22985;-35
2022/10/09 07:58:29;;;;;;;2.80;1.20;;;;;;;10.60;100.00;100483.16;100808;1333;24370;-35
2022/10/09 08:00:55;;;;;;;11.10;1.00;;;;;;;10.87;100.00;100487.50;100900;1343;22737;-35
2022/10/09 08:03:20;;;;;;;2.20;0.60;;;;;;;11.02;100.00;100494.96;100788;1342;24400;-35
2022/10/09 08:05:53;;;;;;;3.20;0.60;;;;;;;11.30;100.00;100493.29;100812;1344;24265;-38
2022/10/09 08:08:18;;;;;;;5.10;1.10;;;;;;;11.26;100.00;100491.59;100825;1344;22517;-36
2022/10/09 08:10:44;;;;;;;6.10;1.30;;;;;;;11.37;100.00;100491.07;100737;1329;25223;-38
2022/10/09 08:13:09;;;;;;;2.50;0.80;;;;;;;11.40;100.00;100490.82;100781;1335;23478;-35
2022/10/09 08:15:39;;;;;;;7.00;0.70;;;;;;;11.49;100.00;100490.36;100772;1337;26466;-36
2022/10/09 08:18:05;;;;;;;3.40;0.60;;;;;;;11.72;100.00;100488.13;100734;1338;23228;-34
2022/10/09 08:20:30;;;;;;;5.80;1.70;;;;;;;11.90;100.00;100486.96;100765;1332;25622;-35
2022/10/09 08:22:56;;;;;;;2.80;1.20;;;;;;;12.15;98.83;100487.36;100771;1336;23104;-38
2022/10/09 08:25:21;;;;;;;2.20;0.60;;;;;;;11.98;96.57;100488.16;100723;1336;22877;-36
2022/10/09 08:27:47;;;;;;;4.50;1.30;;;;;;;12.21;98.04;100484.90;100788;1338;23217;-36
2022/10/09 08:30:12;;;;;;;0.80;0.60;;;;;;;12.32;95.75;100487.23;100863;1342;23100;-36
2022/10/09 08:32:39;;;;;;;6.10;0.90;;;;;;;12.55;94.21;100486.05;100794;1342;22874;-34
2022/10/09 08:35:06;;;;;;;2.30;0.60;;;;;;;12.59;94.95;100489.73;100828;1343;24471;-34
2022/10/09 08:37:31;;;;;;;2.30;0.90;;;;;;;12.60;92.95;100486.20;100771;1340;24426;-36
2022/10/09 08:39:57;;;;;;;0.70;0.30;;;;;;;13.07;90.16;100487.77;100691;1337;22752;-34
2022/10/09 08:42:27;;;;;;;1.10;0.50;;;;;;;12.85;88.52;100493.50;100742;1344;22746;-37
2022/10/09 08:44:53;;;;;;;3.70;0.80;;;;;;;12.68;88.53;100492.09;100812;1338;24494;-35
2022/10/09 08:47:22;;;;;;;3.70;0.90;;;;;;;12.56;88.65;100496.89;100804;1338;22758;-35
2022/10/09 08:49:55;;;;;;;4.50;0.90;;;;;;;12.88;90.31;100497.71;100794;1336;24373;-34
2022/10/09 08:52:28;;;;;;;3.30;0.50;;;;;;;13.16;89.45;100494.89;100808;1339;22526;-34
2022/10/09 08:54:55;;;;;;;2.80;0.50;;;;;;;13.57;86.95;100493.72;100861;1344;25452;-37
2022/10/09 08:57:20;;;;;;;8.00;1.10;;;;;;;13.46;86.16;100497.07;100757;1336;22876;-37
2022/10/09 08:59:46;;;;;;;2.60;0.90;;;;;;;13.50;85.28;100496.67;100776;1336;23351;-36
2022/10/09 09:02:15;;;;;;;15.10;1.20;;;;;;;13.71;85.57;100500.08;100761;1332;22761;-34
2022/10/09 09:04:49;;;;;;;1.80;0.70;;;;;;;14.04;82.43;100502.42;100753;1342;24489;-37
2022/10/09 09:07:23;;;;;;;3.20;0.80;;;;;;;13.70;84.31;100508.00;100779;1338;22738;-34
2022/10/09 09:09:55;;;;;;;4.80;0.80;;;;;;;14.10;82.72;100505.29;100832;1344;24462;-34
2022/10/09 09:12:24;;;;;;;8.90;1.20;;;;;;;14.02;80.48;100507.57;100793;1338;26538;-34
2022/10/09 09:14:55;;;;;;;3.50;0.50;;;;;;;13.69;81.50;100506.91;100780;1338;22761;-34
2022/10/09 09:17:29;;;;;;;6.00;1.20;;;;;;;14.00;81.05;100505.67;100731;1338;24485;-36
2022/10/09 09:20:02;;;;;;;2.70;1.00;;;;;;;13.86;81.03;100502.37;100737;1338;22505;-37
2022/10/09 09:22:28;;;;;;;2.70;0.80;;;;;;;14.16;80.99;100504.02;100740;1345;22562;-36
2022/10/09 09:24:55;;;;;;;3.40;1.10;;;;;;;13.97;81.85;100505.73;100824;1339;23053;-36
2022/10/09 09:27:28;;;;;;;5.70;1.10;;;;;;;14.04;81.83;100505.67;100819;1336;24489;-35
2022/10/09 09:29:56;;;;;;;4.00;0.70;;;;;;;14.03;80.31;100510.16;100806;1338;22514;-34
2022/10/09 09:32:23;;;;;;;5.50;0.80;;;;;;;13.85;80.35;100508.42;100851;1338;22870;-36
2022/10/09 09:34:49;;;;;;;1.50;0.80;;;;;;;13.82;81.23;100509.81;100751;1338;24695;-36
2022/10/09 09:37:15;;;;;;;9.10;1.00;;;;;;;14.24;80.30;100510.66;100798;1338;22514;-34
2022/10/09 09:39:41;;;;;;;4.30;1.00;;;;;;;13.99;80.50;100510.41;100747;1336;23266;-34
2022/10/09 09:42:13;;;;;;;2.60;1.00;;;;;;;14.21;80.59;100507.71;100764;1338;23076;-34
2022/10/09 09:44:44;;;;;;;2.50;0.50;;;;;;;14.25;79.41;100505.64;100759;1338;24599;-36
2022/10/09 09:47:13;;;;;;;1.70;1.00;;;;;;;14.43;78.42;100507.10;100744;1338;24379;-34
2022/10/09 09:49:38;;;;;;;2.20;0.80;;;;;;;14.68;78.54;100509.83;100753;1338;23146;-36
2022/10/09 09:52:05;;;;;;;6.30;0.90;;;;;;;14.96;77.39;100508.94;100832;1338;23112;-34
2022/10/09 09:54:30;;;;;;;2.60;0.90;;;;;;;15.31;74.10;100507.19;100761;1338;22755;-34
2022/10/09 09:56:57;;;;;;;5.40;0.70;;;;;;;14.99;74.15;100510.21;100847;1338;22716;-37
2022/10/09 09:59:23;;;;;;;2.20;0.80;;;;;;;14.63;72.78;100511.26;100819;1338;22502;-37
2022/10/09 10:01:58;;;;;;;1.40;0.40;;;;;;;14.84;72.92;100512.89;100751;1332;22761;-36
2022/10/09 10:04:27;;;;;;;2.40;0.50;;;;;;;14.75;72.21;100505.65;100812;1338;24763;-34
2022/10/09 10:06:52;;;;;;;10.30;0.50;;;;;;;15.00;71.16;100505.05;100731;1330;23103;-36
2022/10/09 10:09:18;;;;;;;4.70;0.60;;;;;;;14.62;72.54;100501.24;100795;1338;23235;-34
2022/10/09 10:11:47;;;;;;;5.10;1.00;;;;;;;14.71;72.96;100502.64;100825;1337;24282;-34
2022/10/09 10:14:13;;;;;;;3.20;0.80;;;;;;;15.16;71.75;100499.34;100856;1338;22624;-36
2022/10/09 10:16:39;;;;;;;2.90;0.60;;;;;;;15.12;73.31;100503.44;100866;1338;22746;-35
2022/10/09 10:19:05;;;;;;;4.50;0.70;;;;;;;14.89;71.30;100502.42;100806;1338;22504;-34
2022/10/09 10:21:39;;;;;;;7.20;0.60;;;;;;;15.74;69.11;100497.48;100853;1331;23103;-35
2022/10/09 10:24:04;;;;;;;7.00;0.60;;;;;;;15.62;69.88;100503.09;100848;1330;22498;-33
2022/10/09 10:26:33;;;;;;;1.50;0.70;;;;;;;15.68;70.14;100502.95;100810;1338;24853;-34
2022/10/09 10:29:04;;;;;;;3.50;0.90;;;;;;;15.90;69.17;100499.71;100784;1338;23103;-33
2022/10/09 10:31:34;;;;;;;2.20;0.40;;;;;;;15.55;67.39;100501.80;100845;1338;23932;-36
2022/10/09 10:34:00;;;;;;;1.50;0.40;;;;;;;15.46;66.82;100502.52;100784;1336;22863;-33
2022/10/09 10:36:25;;;;;;;1.10;0.40;;;;;;;15.17;65.93;100506.44;100774;1338;24901;-36
2022/10/09 10:38:54;;;;;;;1.40;0.50;;;;;;;15.45;67.16;100503.18;100802;1337;24377;-34
2022/10/09 10:41:24;;;;;;;8.00;0.40;;;;;;;15.77;66.83;100504.05;100806;1338;22581;-35
2022/10/09 10:43:53;;;;;;;1.90;0.60;;;;;;;16.15;65.85;100497.58;100826;1336;22760;-35
2022/10/09 10:46:22;;;;;;;1.40;0.40;;;;;;;16.64;62.85;100499.46;100816;1331;22903;-38
2022/10/09 10:48:48;;;;;;;0.70;0.30;;;;;;;16.37;59.46;100504.62;100832;1338;25655;-35
2022/10/09 10:51:17;;;;;;;11.00;1.70;;;;;;;16.15;60.46;100509.55;100862;1337;23003;-33
2022/10/09 10:53:47;;;;;;;5.20;0.50;;;;;;;15.93;60.69;100510.28;100737;1338;23062;-33
2022/10/09 10:56:23;;;;;;;5.50;0.60;;;;;;;16.16;60.57;100503.42;100720;1339;22959;-36
2022/10/09 10:58:58;;;;;;;1.50;0.40;;;;;;;16.03;62.99;100503.66;100755;1338;22518;-34
2022/10/09 11:01:28;;;;;;;1.10;0.30;;;;;;;16.20;59.08;100509.65;100755;1338;24226;-36
2022/10/09 11:04:01;;;;;;;0.70;0.40;;;;;;;16.27;57.52;100507.91;100793;1338;24349;-33
2022/10/09 11:06:33;;;;;;;1.00;0.40;;;;;;;16.73;57.47;100508.98;100827;1338;22497;-38
2022/10/09 11:09:05;;;;;;;2.30;0.40;;;;;;;16.76;57.51;100505.27;100822;1338;25228;-37
2022/10/09 11:11:38;;;;;;;0.60;0.30;;;;;;;17.24;55.68;100503.64;100800;1338;22523;-37
2022/10/09 11:14:11;;;;;;;2.80;0.50;;;;;;;17.14;54.51;100506.50;100812;1338;26571;-35